createdAt,value
2022-09-12T00:00:37.041Z,39.13
2022-09-12T00:01:41.642Z,39.23
2022-09-12T00:02:46.235Z,39.02
2022-09-12T00:03:56.187Z,38.92
2022-09-12T00:05:00.900Z,38.69
2022-09-12T00:06:22.368Z,38.72
2022-09-12T00:07:22.747Z,38.72
2022-09-12T00:08:25.700Z,38.71
2022-09-12T00:09:28.731Z,38.71
2022-09-12T00:10:32.303Z,38.83
2022-09-12T00:11:37.031Z,39.05
2022-09-12T00:12:39.894Z,38.94
2022-09-12T00:13:43.218Z,39.03
2022-09-12T00:14:46.045Z,39.02
2022-09-12T00:15:48.966Z,38.94
2022-09-12T00:16:52.135Z,39.13
2022-09-12T00:17:55.025Z,39.23
2022-09-12T00:18:57.935Z,39.16
2022-09-12T00:20:00.885Z,39.22
2022-09-12T00:21:04.744Z,39.36
2022-09-12T00:22:07.713Z,39.38
2022-09-12T00:23:11.534Z,39.47
2022-09-12T00:24:14.466Z,39.47
2022-09-12T00:25:17.452Z,39.29
2022-09-12T00:26:21.596Z,39.08
2022-09-12T00:27:24.744Z,39.08
2022-09-12T00:28:27.693Z,38.95
2022-09-12T00:29:30.610Z,39.03
2022-09-12T00:30:33.907Z,38.93
2022-09-12T00:31:36.938Z,39.14
2022-09-12T00:32:40.131Z,38.90
2022-09-12T00:33:43.151Z,38.95
2022-09-12T00:34:46.079Z,39.08
2022-09-12T00:35:52.397Z,39.02
2022-09-12T00:36:55.645Z,39.13
2022-09-12T00:37:58.482Z,39.33
2022-09-12T00:39:01.487Z,39.38
2022-09-12T00:40:05.012Z,39.60
2022-09-12T00:41:14.420Z,39.50
2022-09-12T00:42:17.363Z,39.54
2022-09-12T00:43:35.310Z,39.59
2022-09-12T00:44:43.952Z,39.64
2022-09-12T00:45:46.958Z,39.83
2022-09-12T00:46:53.377Z,40.05
2022-09-12T00:47:59.770Z,40.15
2022-09-12T00:49:24.307Z,40.15
2022-09-12T00:50:28.169Z,40.53
2022-09-12T00:51:34.108Z,40.63
2022-09-12T00:52:46.408Z,40.73
2022-09-12T00:53:52.201Z,40.80
2022-09-12T00:55:04.394Z,40.89
2022-09-12T00:56:07.678Z,41.09
2022-09-12T00:57:14.075Z,41.36
2022-09-12T00:58:20.465Z,41.48
2022-09-12T00:59:32.940Z,41.50
2022-09-12T01:00:35.957Z,41.43
2022-09-12T01:01:41.169Z,41.27
2022-09-12T01:02:47.131Z,41.25
2022-09-12T01:03:49.995Z,41.26
2022-09-12T01:04:53.225Z,41.37
2022-09-12T01:06:05.331Z,41.41
2022-09-12T01:07:08.461Z,41.54
2022-09-12T01:08:11.661Z,41.49
2022-09-12T01:09:17.942Z,41.37
2022-09-12T01:10:21.878Z,41.44
2022-09-12T01:11:25.264Z,41.38
2022-09-12T01:12:28.923Z,41.30
2022-09-12T01:13:33.938Z,41.19
2022-09-12T01:14:37.893Z,41.16
2022-09-12T01:15:40.931Z,41.25
2022-09-12T01:16:45.450Z,41.30
2022-09-12T01:18:07.194Z,41.51
2022-09-12T01:19:45.878Z,41.73
2022-09-12T01:21:07.229Z,41.96
2022-09-12T01:22:16.656Z,42.29
2022-09-12T01:23:28.040Z,42.53
2022-09-12T01:24:40.156Z,42.42
2022-09-12T01:26:09.099Z,42.34
2022-09-12T01:27:18.264Z,42.31
2022-09-12T01:28:36.399Z,42.42
2022-09-12T01:30:04.173Z,42.59
2022-09-12T01:31:10.580Z,42.83
2022-09-12T01:32:17.016Z,43.14
2022-09-12T01:33:26.256Z,43.14
2022-09-12T01:34:45.008Z,43.31
2022-09-12T01:36:10.908Z,43.46
2022-09-12T01:37:26.067Z,43.37
2022-09-12T01:38:39.107Z,43.30
2022-09-12T01:40:03.674Z,43.19
2022-09-12T01:41:12.913Z,43.38
2022-09-12T01:42:28.416Z,43.49
2022-09-12T01:43:41.370Z,43.42
2022-09-12T01:44:54.289Z,43.50
2022-09-12T01:46:09.089Z,43.70
2022-09-12T01:47:27.905Z,44.03
2022-09-12T01:48:49.700Z,44.07
2022-09-12T01:49:59.038Z,44.06
2022-09-12T01:51:14.484Z,44.17
2022-09-12T01:52:31.190Z,44.37
2022-09-12T01:53:43.681Z,44.56
2022-09-12T01:54:52.840Z,44.77
2022-09-12T01:55:59.223Z,44.87
2022-09-12T01:57:05.812Z,44.98
2022-09-12T01:58:28.599Z,45.07
2022-09-12T01:59:37.842Z,45.16
2022-09-12T02:00:47.690Z,45.14
2022-09-12T02:01:55.014Z,45.10
2022-09-12T02:03:10.498Z,45.16
2022-09-12T02:04:25.862Z,45.24
2022-09-12T02:05:35.259Z,45.42
2022-09-12T02:06:53.450Z,45.51
2022-09-12T02:08:14.791Z,45.59
2022-09-12T02:09:21.348Z,45.48
2022-09-12T02:10:32.830Z,45.24
2022-09-12T02:11:39.499Z,45.20
2022-09-12T02:12:45.890Z,45.15
2022-09-12T02:13:55.401Z,45.19
2022-09-12T02:15:02.093Z,45.30
2022-09-12T02:16:11.635Z,45.53
2022-09-12T02:17:18.066Z,45.77
2022-09-12T02:18:21.334Z,45.91
2022-09-12T02:19:30.437Z,45.90
2022-09-12T02:20:54.375Z,46.02
2022-09-12T02:21:53.598Z,46.11
2022-09-12T02:22:57.738Z,46.18
2022-09-12T02:24:04.336Z,46.29
2022-09-12T02:25:10.949Z,46.40
2022-09-12T02:26:19.211Z,46.51
2022-09-12T02:27:25.650Z,46.42
2022-09-12T02:28:38.000Z,46.34
2022-09-12T02:29:42.165Z,46.35
2022-09-12T02:31:07.853Z,46.46
2022-09-12T02:32:47.826Z,46.63
2022-09-12T02:34:15.442Z,46.91
2022-09-12T02:35:38.388Z,47.02
2022-09-12T02:36:50.737Z,47.45
2022-09-12T02:38:15.460Z,47.54
2022-09-12T02:39:20.422Z,47.54
2022-09-12T02:40:25.035Z,47.53
2022-09-12T02:41:28.368Z,47.62
2022-09-12T02:42:31.165Z,47.62
2022-09-12T02:43:34.180Z,47.65
2022-09-12T02:44:37.073Z,47.55
2022-09-12T02:45:40.193Z,47.66
2022-09-12T02:46:46.550Z,47.68
2022-09-12T02:47:58.636Z,47.79
2022-09-12T02:49:02.452Z,47.87
2022-09-12T02:50:07.652Z,47.92
2022-09-12T02:51:11.369Z,48.29
2022-09-12T02:52:15.108Z,48.28
2022-09-12T02:53:18.530Z,48.27
2022-09-12T02:54:21.543Z,48.04
2022-09-12T02:55:24.462Z,47.76
2022-09-12T02:56:29.554Z,48.24
2022-09-12T02:57:32.776Z,48.45
2022-09-12T02:58:36.059Z,48.45
2022-09-12T02:59:38.962Z,48.60
2022-09-12T03:00:56.887Z,48.87
2022-09-12T03:02:24.376Z,48.70
2022-09-12T03:03:56.537Z,48.73
2022-09-12T03:05:15.295Z,48.89
2022-09-12T03:06:41.574Z,48.81
2022-09-12T03:07:48.049Z,48.94
2022-09-12T03:09:00.874Z,49.14
2022-09-12T03:10:25.544Z,48.93
2022-09-12T03:11:37.683Z,49.01
2022-09-12T03:13:06.870Z,49.01
2022-09-12T03:14:28.391Z,49.03
2022-09-12T03:15:40.886Z,48.83
2022-09-12T03:17:14.707Z,48.83
2022-09-12T03:18:21.393Z,48.89
2022-09-12T03:19:31.041Z,49.03
2022-09-12T03:20:37.730Z,49.01
2022-09-12T03:21:52.981Z,49.18
2022-09-12T03:23:08.184Z,49.37
2022-09-12T03:24:37.501Z,49.38
2022-09-12T03:25:44.011Z,49.46
2022-09-12T03:26:59.608Z,49.61
2022-09-12T03:28:11.548Z,49.75
2022-09-12T03:29:14.972Z,50.01
2022-09-12T03:30:18.220Z,50.06
2022-09-12T03:31:21.927Z,50.17
2022-09-12T03:32:46.326Z,50.23
2022-09-12T03:33:49.196Z,50.40
2022-09-12T03:34:52.263Z,50.30
2022-09-12T03:35:55.775Z,50.43
2022-09-12T03:36:58.900Z,50.49
2022-09-12T03:38:01.714Z,50.48
2022-09-12T03:39:04.634Z,50.45
2022-09-12T03:40:09.481Z,50.46
2022-09-12T03:41:12.769Z,50.47
2022-09-12T03:42:15.680Z,50.50
2022-09-12T03:43:18.885Z,50.45
2022-09-12T03:44:22.113Z,50.43
2022-09-12T03:45:25.054Z,50.50
2022-09-12T03:46:28.383Z,50.49
2022-09-12T03:47:31.478Z,50.44
2022-09-12T03:48:34.300Z,50.43
2022-09-12T03:49:37.227Z,50.59
2022-09-12T03:50:40.143Z,50.48
2022-09-12T03:51:43.378Z,50.46
2022-09-12T03:52:46.218Z,50.29
2022-09-12T03:53:49.062Z,50.26
2022-09-12T03:54:51.941Z,50.21
2022-09-12T03:55:54.810Z,50.17
2022-09-12T03:56:57.815Z,50.12
2022-09-12T03:58:00.646Z,50.17
2022-09-12T03:59:07.004Z,50.27
2022-09-12T04:00:10.990Z,50.17
2022-09-12T04:01:18.908Z,50.18
2022-09-12T04:02:21.856Z,50.27
2022-09-12T04:03:24.922Z,50.34
2022-09-12T04:04:28.021Z,50.29
2022-09-12T04:05:30.957Z,50.27
2022-09-12T04:06:34.217Z,50.34
2022-09-12T04:07:37.033Z,50.49
2022-09-12T04:08:40.398Z,50.60
2022-09-12T04:09:43.602Z,50.78
2022-09-12T04:10:47.009Z,50.80
2022-09-12T04:11:50.049Z,50.92
2022-09-12T04:12:52.881Z,50.86
2022-09-12T04:13:55.952Z,50.96
2022-09-12T04:14:58.768Z,51.02
2022-09-12T04:16:02.104Z,51.04
2022-09-12T04:17:05.046Z,51.04
2022-09-12T04:18:08.024Z,51.13
2022-09-12T04:19:11.750Z,51.24
2022-09-12T04:20:16.544Z,51.38
2022-09-12T04:21:23.637Z,51.43
2022-09-12T04:22:26.569Z,51.52
2022-09-12T04:23:29.369Z,51.68
2022-09-12T04:24:32.197Z,51.70
2022-09-12T04:25:35.096Z,51.68
2022-09-12T04:26:38.304Z,51.59
2022-09-12T04:27:41.106Z,51.65
2022-09-12T04:28:44.150Z,51.57
2022-09-12T04:29:47.020Z,51.53
2022-09-12T04:30:50.684Z,51.56
2022-09-12T04:31:53.543Z,51.54
2022-09-12T04:32:56.343Z,51.67
2022-09-12T04:34:00.669Z,51.80
2022-09-12T04:35:04.265Z,51.79
2022-09-12T04:36:10.679Z,51.79
2022-09-12T04:37:13.808Z,51.79
2022-09-12T04:38:16.828Z,51.85
2022-09-12T04:39:19.624Z,51.93
2022-09-12T04:40:22.585Z,51.95
2022-09-12T04:41:28.188Z,52.06
2022-09-12T04:42:31.012Z,52.08
2022-09-12T04:43:34.125Z,52.09
2022-09-12T04:44:37.389Z,52.18
2022-09-12T04:45:40.492Z,52.26
2022-09-12T04:46:46.481Z,52.35
2022-09-12T04:47:49.355Z,52.35
2022-09-12T04:48:56.591Z,52.40
2022-09-12T04:49:57.181Z,52.38
2022-09-12T04:51:11.712Z,52.45
2022-09-12T04:52:14.595Z,52.62
2022-09-12T04:53:17.500Z,52.65
2022-09-12T04:54:20.524Z,52.66
2022-09-12T04:55:24.919Z,52.82
2022-09-12T04:56:29.442Z,53.12
2022-09-12T04:57:32.261Z,53.45
2022-09-12T04:58:35.971Z,53.70
2022-09-12T04:59:39.335Z,53.90
2022-09-12T05:00:43.035Z,54.12
2022-09-12T05:01:45.846Z,54.50
2022-09-12T05:02:48.678Z,54.89
2022-09-12T05:03:51.573Z,55.20
2022-09-12T05:04:54.391Z,55.41
2022-09-12T05:05:57.315Z,55.59
2022-09-12T05:07:00.131Z,55.72
2022-09-12T05:08:03.017Z,55.81
2022-09-12T05:09:08.144Z,55.96
2022-09-12T05:10:12.114Z,56.12
2022-09-12T05:11:22.717Z,56.27
2022-09-12T05:12:23.162Z,56.24
2022-09-12T05:13:26.579Z,56.36
2022-09-12T05:14:30.360Z,56.53
2022-09-12T05:15:33.795Z,56.80
2022-09-12T05:16:36.895Z,57.08
2022-09-12T05:17:39.855Z,57.28
2022-09-12T05:18:44.085Z,57.36
2022-09-12T05:19:47.783Z,57.45
2022-09-12T05:20:50.621Z,57.61
2022-09-12T05:21:53.455Z,57.69
2022-09-12T05:22:56.374Z,57.77
2022-09-12T05:23:59.597Z,57.83
2022-09-12T05:25:02.462Z,57.92
2022-09-12T05:26:06.464Z,58.00
2022-09-12T05:27:09.544Z,58.07
2022-09-12T05:28:12.444Z,58.15
2022-09-12T05:29:15.263Z,58.17
2022-09-12T05:30:19.420Z,58.26
2022-09-12T05:31:25.213Z,58.37
2022-09-12T05:32:31.906Z,58.48
2022-09-12T05:33:36.061Z,58.53
2022-09-12T05:34:39.933Z,58.65
2022-09-12T05:35:46.345Z,58.74
2022-09-12T05:36:49.511Z,59.02
2022-09-12T05:37:52.433Z,59.12
2022-09-12T05:38:56.282Z,59.12
2022-09-12T05:39:59.358Z,59.17
2022-09-12T05:41:07.918Z,59.22
2022-09-12T05:42:11.595Z,59.23
2022-09-12T05:43:14.419Z,59.25
2022-09-12T05:44:17.386Z,59.33
2022-09-12T05:45:20.628Z,59.36
2022-09-12T05:46:26.690Z,59.38
2022-09-12T05:47:29.600Z,59.40
2022-09-12T05:48:32.433Z,59.43
2022-09-12T05:49:35.649Z,59.43
2022-09-12T05:50:38.768Z,59.38
2022-09-12T05:51:44.367Z,59.26
2022-09-12T05:52:47.199Z,59.10
2022-09-12T05:53:52.995Z,59.05
2022-09-12T05:54:55.930Z,58.92
2022-09-12T05:56:05.080Z,58.86
2022-09-12T05:57:08.017Z,58.83
2022-09-12T05:58:10.834Z,58.85
2022-09-12T05:59:16.935Z,58.83
2022-09-12T06:00:21.131Z,58.89
2022-09-12T06:01:25.227Z,59.03
2022-09-12T06:02:28.267Z,59.16
2022-09-12T06:03:31.141Z,59.25
2022-09-12T06:04:33.967Z,59.33
2022-09-12T06:05:36.776Z,59.52
2022-09-12T06:06:42.922Z,59.47
2022-09-12T06:07:46.656Z,59.61
2022-09-12T06:08:52.186Z,59.66
2022-09-12T06:09:55.054Z,59.68
2022-09-12T06:11:02.528Z,59.60
2022-09-12T06:12:07.033Z,59.63
2022-09-12T06:13:09.899Z,59.66
2022-09-12T06:14:14.956Z,59.81
2022-09-12T06:15:17.798Z,59.94
2022-09-12T06:16:24.133Z,60.03
2022-09-12T06:17:27.140Z,60.16
2022-09-12T06:18:29.950Z,60.31
2022-09-12T06:19:33.068Z,60.44
2022-09-12T06:20:36.400Z,60.72
2022-09-12T06:21:39.519Z,60.80
2022-09-12T06:22:42.330Z,61.00
2022-09-12T06:23:46.509Z,61.23
2022-09-12T06:24:49.358Z,61.40
2022-09-12T06:25:52.395Z,61.61
2022-09-12T06:26:55.591Z,61.82
2022-09-12T06:27:58.509Z,62.01
2022-09-12T06:29:02.428Z,62.07
2022-09-12T06:30:06.450Z,62.18
2022-09-12T06:31:14.753Z,62.44
2022-09-12T06:32:17.789Z,62.64
2022-09-12T06:33:20.646Z,62.76
2022-09-12T06:34:23.541Z,63.02
2022-09-12T06:35:26.422Z,63.07
2022-09-12T06:36:37.489Z,63.32
2022-09-12T06:37:41.183Z,63.48
2022-09-12T06:38:45.791Z,63.60
2022-09-12T06:39:48.933Z,63.66
2022-09-12T06:40:52.272Z,63.78
2022-09-12T06:41:55.135Z,63.94
2022-09-12T06:42:59.922Z,64.07
2022-09-12T06:44:04.911Z,64.09
2022-09-12T06:45:08.766Z,64.09
2022-09-12T06:46:12.706Z,64.07
2022-09-12T06:47:15.800Z,64.01
2022-09-12T06:48:19.533Z,63.99
2022-09-12T06:49:22.568Z,63.90
2022-09-12T06:50:27.515Z,63.77
2022-09-12T06:51:30.352Z,63.65
2022-09-12T06:52:33.181Z,63.51
2022-09-12T06:53:38.825Z,63.46
2022-09-12T06:54:41.786Z,63.40
2022-09-12T06:55:44.611Z,63.33
2022-09-12T06:56:48.131Z,63.27
2022-09-12T06:57:51.673Z,63.30
2022-09-12T06:58:58.732Z,63.25
2022-09-12T07:00:05.020Z,63.27
2022-09-12T07:01:10.994Z,63.27
2022-09-12T07:02:14.734Z,63.23
2022-09-12T07:03:18.259Z,63.28
2022-09-12T07:04:21.522Z,63.23
2022-09-12T07:05:24.381Z,63.15
2022-09-12T07:06:33.543Z,63.12
2022-09-12T07:07:36.529Z,63.04
2022-09-12T07:08:40.364Z,63.02
2022-09-12T07:09:44.114Z,63.00
2022-09-12T07:10:47.059Z,62.98
2022-09-12T07:11:49.879Z,62.94
2022-09-12T07:12:52.810Z,62.93
2022-09-12T07:13:57.661Z,62.87
2022-09-12T07:15:00.637Z,62.88
2022-09-12T07:16:04.948Z,62.86
2022-09-12T07:17:08.259Z,62.84
2022-09-12T07:18:11.167Z,62.84
2022-09-12T07:19:14.137Z,62.91
2022-09-12T07:20:18.102Z,62.91
2022-09-12T07:21:21.319Z,62.96
2022-09-12T07:22:24.138Z,62.99
2022-09-12T07:23:27.161Z,63.01
2022-09-12T07:24:29.974Z,63.10
2022-09-12T07:25:32.912Z,63.13
2022-09-12T07:26:36.323Z,63.11
2022-09-12T07:27:39.260Z,63.16
2022-09-12T07:28:42.727Z,63.28
2022-09-12T07:29:46.753Z,63.23
2022-09-12T07:30:50.003Z,63.27
2022-09-12T07:31:53.415Z,63.38
2022-09-12T07:32:56.243Z,63.47
2022-09-12T07:33:59.179Z,63.52
2022-09-12T07:35:02.663Z,63.57
2022-09-12T07:36:10.584Z,63.65
2022-09-12T07:37:13.416Z,63.71
2022-09-12T07:38:16.720Z,63.81
2022-09-12T07:39:19.658Z,63.97
2022-09-12T07:40:23.781Z,64.03
2022-09-12T07:41:28.343Z,64.11
2022-09-12T07:42:31.734Z,64.20
2022-09-12T07:43:34.590Z,64.30
2022-09-12T07:44:37.557Z,64.40
2022-09-12T07:45:41.791Z,64.55
2022-09-12T07:46:44.924Z,64.71
2022-09-12T07:47:47.754Z,64.84
2022-09-12T07:48:54.826Z,65.05
2022-09-12T07:49:58.017Z,65.21
2022-09-12T07:51:03.457Z,65.39
2022-09-12T07:52:06.313Z,65.63
2022-09-12T07:53:09.244Z,65.77
2022-09-12T07:54:12.049Z,65.98
2022-09-12T07:55:14.885Z,66.24
2022-09-12T07:56:20.718Z,66.50
2022-09-12T07:57:24.446Z,66.70
2022-09-12T07:58:27.330Z,66.83
2022-09-12T07:59:51.565Z,67.01
2022-09-12T08:00:36.881Z,67.18
2022-09-12T08:01:40.963Z,67.37
2022-09-12T08:02:44.249Z,67.56
2022-09-12T08:03:49.321Z,67.60
2022-09-12T08:04:52.865Z,67.74
2022-09-12T08:06:04.271Z,67.90
2022-09-12T08:07:07.415Z,68.07
2022-09-12T08:08:10.472Z,68.21
2022-09-12T08:09:14.888Z,68.34
2022-09-12T08:10:18.055Z,68.48
2022-09-12T08:11:22.322Z,68.63
2022-09-12T08:12:25.579Z,68.76
2022-09-12T08:13:29.324Z,68.86
2022-09-12T08:14:32.266Z,68.95
2022-09-12T08:15:35.680Z,69.07
2022-09-12T08:16:38.646Z,69.32
2022-09-12T08:17:44.278Z,69.30
2022-09-12T08:18:47.722Z,69.41
2022-09-12T08:19:50.898Z,69.54
2022-09-12T08:21:01.521Z,69.64
2022-09-12T08:22:04.842Z,69.71
2022-09-12T08:23:07.711Z,69.98
2022-09-12T08:24:11.733Z,69.98
2022-09-12T08:25:14.740Z,70.09
2022-09-12T08:26:17.858Z,70.20
2022-09-12T08:27:20.703Z,70.39
2022-09-12T08:28:24.920Z,70.49
2022-09-12T08:29:28.104Z,70.59
2022-09-12T08:30:31.150Z,70.69
2022-09-12T08:32:46.709Z,70.90
2022-09-12T08:33:49.772Z,70.91
2022-09-12T08:34:52.596Z,70.89
2022-09-12T08:35:59.054Z,70.89
2022-09-12T08:37:02.365Z,70.99
2022-09-12T08:38:05.559Z,71.01
2022-09-12T08:39:08.499Z,71.03
2022-09-12T08:40:18.214Z,71.03
2022-09-12T08:41:34.492Z,71.00
2022-09-12T08:42:47.728Z,71.04
2022-09-12T08:44:11.051Z,70.83
2022-09-12T08:45:17.454Z,70.76
2022-09-12T08:46:25.509Z,70.64
2022-09-12T08:47:35.123Z,70.50
2022-09-12T08:48:38.495Z,70.35
2022-09-12T08:49:57.024Z,70.25
2022-09-12T08:51:00.877Z,70.22
2022-09-12T08:52:07.293Z,70.14
2022-09-12T08:54:44.982Z,70.19
2022-09-12T08:55:54.539Z,70.09
2022-09-12T08:57:05.191Z,70.16
2022-09-12T08:58:20.321Z,70.21
2022-09-12T08:59:23.601Z,70.19
2022-09-12T09:00:39.950Z,70.28
2022-09-12T09:01:44.994Z,70.26
2022-09-12T09:03:08.366Z,70.30
2022-09-12T09:04:32.956Z,70.30
2022-09-12T09:05:57.189Z,70.34
2022-09-12T09:07:18.883Z,70.37
2022-09-12T09:08:40.053Z,70.41
2022-09-12T09:10:06.499Z,70.55
2022-09-12T09:11:16.060Z,70.71
2022-09-12T09:12:28.195Z,70.90
2022-09-12T09:14:23.529Z,70.89
2022-09-12T09:15:48.970Z,70.98
2022-09-12T09:16:53.866Z,71.08
2022-09-12T09:18:16.227Z,71.17
2022-09-12T09:19:25.431Z,71.19
2022-09-12T09:20:59.352Z,71.18
2022-09-12T09:22:05.743Z,71.21
2022-09-12T09:23:27.113Z,71.17
2022-09-12T09:24:51.631Z,71.19
2022-09-12T09:26:18.737Z,71.18
2022-09-12T09:27:40.961Z,71.24
2022-09-12T09:28:52.124Z,71.31
2022-09-12T09:29:55.879Z,71.38
2022-09-12T09:30:59.179Z,71.44
2022-09-12T09:32:05.665Z,71.51
2022-09-12T09:33:12.101Z,71.63
2022-09-12T09:34:24.356Z,71.80
2022-09-12T09:35:45.002Z,71.75
2022-09-12T09:37:04.356Z,71.79
2022-09-12T09:38:22.683Z,71.83
2022-09-12T09:39:37.674Z,71.91
2022-09-12T09:40:53.016Z,71.93
2022-09-12T09:42:08.625Z,72.00
2022-09-12T09:43:23.339Z,72.12
2022-09-12T09:44:29.052Z,72.02
2022-09-12T09:45:32.159Z,72.05
2022-09-12T09:46:35.508Z,72.03
2022-09-12T09:47:38.358Z,72.02
2022-09-12T09:48:43.640Z,72.04
2022-09-12T09:49:46.976Z,72.00
2022-09-12T09:50:50.780Z,71.98
2022-09-12T09:51:56.601Z,71.90
2022-09-12T09:53:02.293Z,71.87
2022-09-12T09:54:20.606Z,71.82
2022-09-12T09:55:27.018Z,71.77
2022-09-12T09:56:36.410Z,71.66
2022-09-12T09:57:41.447Z,71.58
2022-09-12T09:58:44.587Z,71.53
2022-09-12T09:59:47.467Z,71.48
2022-09-12T10:00:56.615Z,71.44
2022-09-12T10:02:10.539Z,71.45
2022-09-12T10:03:26.277Z,71.45
2022-09-12T10:04:32.084Z,71.54
2022-09-12T10:05:38.407Z,71.62
2022-09-12T10:06:41.357Z,71.41
2022-09-12T10:07:52.028Z,71.31
2022-09-12T10:09:16.369Z,71.25
2022-09-12T10:10:22.340Z,71.22
2022-09-12T10:11:28.039Z,71.21
2022-09-12T10:12:31.066Z,71.28
2022-09-12T10:13:43.049Z,71.33
2022-09-12T10:14:57.626Z,71.30
2022-09-12T10:16:04.243Z,71.38
2022-09-12T10:17:33.177Z,71.41
2022-09-12T10:18:39.802Z,71.41
2022-09-12T10:19:42.647Z,71.47
2022-09-12T10:20:45.964Z,71.53
2022-09-12T10:21:52.272Z,71.44
2022-09-12T10:22:55.313Z,71.43
2022-09-12T10:24:04.738Z,71.41
2022-09-12T10:25:11.288Z,71.36
2022-09-12T10:26:17.471Z,71.31
2022-09-12T10:27:23.395Z,71.30
2022-09-12T10:28:44.710Z,71.24
2022-09-12T10:29:51.340Z,71.20
2022-09-12T10:30:56.291Z,71.11
2022-09-12T10:33:14.575Z,71.02
2022-09-12T10:34:27.590Z,70.98
2022-09-12T10:35:34.077Z,70.98
2022-09-12T10:36:39.362Z,71.02
2022-09-12T10:37:52.357Z,71.04
2022-09-12T10:39:00.110Z,71.04
2022-09-12T10:40:06.284Z,71.04
2022-09-12T10:41:11.177Z,71.09
2022-09-12T10:42:15.338Z,71.09
2022-09-12T10:43:30.472Z,71.14
2022-09-12T10:44:35.102Z,71.15
2022-09-12T10:45:38.221Z,71.19
2022-09-12T10:46:41.245Z,71.24
2022-09-12T10:47:44.225Z,71.35
2022-09-12T10:48:52.163Z,71.37
2022-09-12T10:49:58.591Z,71.30
2022-09-12T10:51:01.657Z,71.33
2022-09-12T10:52:24.343Z,71.38
2022-09-12T10:53:34.357Z,71.41
2022-09-12T10:54:35.901Z,71.47
2022-09-12T10:55:42.129Z,71.57
2022-09-12T10:56:49.176Z,71.54
2022-09-12T10:57:58.412Z,71.57
2022-09-12T10:59:27.445Z,71.65
2022-09-12T11:00:34.425Z,71.66
2022-09-12T11:01:52.886Z,71.83
2022-09-12T11:03:16.204Z,71.79
2022-09-12T11:04:22.700Z,71.97
2022-09-12T11:05:45.599Z,71.97
2022-09-12T11:07:07.044Z,72.03
2022-09-12T11:08:34.411Z,72.12
2022-09-12T11:10:01.197Z,72.07
2022-09-12T11:11:08.429Z,72.08
2022-09-12T11:12:29.687Z,72.19
2022-09-12T11:13:51.379Z,72.22
2022-09-12T11:15:17.523Z,72.26
2022-09-12T11:16:32.862Z,72.39
2022-09-12T11:17:51.434Z,72.34
2022-09-12T11:19:06.969Z,72.30
2022-09-12T11:20:34.612Z,72.33
2022-09-12T11:21:57.616Z,72.32
2022-09-12T11:23:16.471Z,72.30
2022-09-12T11:24:44.133Z,72.30
2022-09-12T11:26:02.415Z,72.30
2022-09-12T11:27:11.781Z,72.40
2022-09-12T11:28:33.093Z,72.47
2022-09-12T11:29:46.206Z,72.50
2022-09-12T11:30:53.123Z,72.54
2022-09-12T11:32:32.724Z,72.52
2022-09-12T11:33:47.880Z,72.58
2022-09-12T11:35:17.838Z,72.65
2022-09-12T11:36:39.458Z,72.71
2022-09-12T11:38:19.261Z,72.70
2022-09-12T11:39:25.598Z,72.72
2022-09-12T11:40:43.950Z,72.74
2022-09-12T11:41:51.070Z,72.80
2022-09-12T11:42:57.499Z,72.87
2022-09-12T11:44:13.497Z,72.85
2022-09-12T11:45:19.995Z,72.80
2022-09-12T11:46:26.513Z,72.85
2022-09-12T11:47:33.081Z,72.88
2022-09-12T11:49:05.133Z,72.87
2022-09-12T11:50:20.959Z,72.87
2022-09-12T11:51:30.344Z,72.80
2022-09-12T11:52:36.748Z,72.79
2022-09-12T11:53:42.336Z,72.72
2022-09-12T11:55:05.344Z,72.71
2022-09-12T11:56:19.265Z,72.64
2022-09-12T11:57:43.654Z,72.58
2022-09-12T11:58:52.801Z,72.51
2022-09-12T12:00:23.004Z,72.43
2022-09-12T12:01:29.556Z,72.40
2022-09-12T12:02:41.951Z,72.31
2022-09-12T12:03:47.325Z,72.26
2022-09-12T12:05:21.043Z,72.26
2022-09-12T12:06:33.288Z,72.17
2022-09-12T12:07:46.021Z,72.15
2022-09-12T12:08:50.019Z,72.09
2022-09-12T12:09:52.898Z,72.07
2022-09-12T12:10:59.184Z,72.00
2022-09-12T12:12:06.165Z,71.94
2022-09-12T12:13:38.790Z,71.88
2022-09-12T12:14:45.179Z,71.83
2022-09-12T12:16:09.621Z,71.82
2022-09-12T12:17:19.165Z,71.79
2022-09-12T12:18:25.200Z,71.75
2022-09-12T12:19:37.159Z,71.71
2022-09-12T12:20:40.154Z,71.74
2022-09-12T12:21:49.123Z,71.75
2022-09-12T12:22:53.299Z,71.63
2022-09-12T12:24:12.237Z,71.64
2022-09-12T12:25:21.893Z,71.65
2022-09-12T12:26:42.162Z,71.61
2022-09-12T12:27:58.634Z,71.62
2022-09-12T12:29:01.486Z,71.63
2022-09-12T12:30:08.400Z,71.61
2022-09-12T12:31:11.395Z,71.69
2022-09-12T12:32:20.883Z,71.70
2022-09-12T12:33:30.181Z,71.73
2022-09-12T12:34:46.489Z,71.79
2022-09-12T12:36:04.558Z,71.78
2022-09-12T12:37:24.894Z,71.81
2022-09-12T12:38:36.584Z,71.85
2022-09-12T12:39:43.307Z,71.83
2022-09-12T12:40:46.435Z,71.83
2022-09-12T12:41:49.273Z,71.81
2022-09-12T12:43:04.097Z,71.89
2022-09-12T12:44:46.645Z,71.81
2022-09-12T12:45:53.110Z,71.75
2022-09-12T12:47:22.692Z,71.73
2022-09-12T12:48:25.553Z,71.71
2022-09-12T12:49:29.583Z,71.76
2022-09-12T12:50:32.631Z,71.77
2022-09-12T12:52:03.273Z,71.77
2022-09-12T12:53:07.619Z,71.74
2022-09-12T12:54:30.712Z,71.69
2022-09-12T12:55:39.509Z,71.71
2022-09-12T12:56:43.486Z,71.62
2022-09-12T12:57:50.065Z,71.61
2022-09-12T12:59:02.150Z,71.58
2022-09-12T13:00:11.447Z,71.51
2022-09-12T13:01:22.191Z,71.61
2022-09-12T13:02:32.163Z,71.62
2022-09-12T13:03:47.828Z,71.51
2022-09-12T13:04:52.093Z,71.56
2022-09-12T13:05:58.568Z,71.48
2022-09-12T13:07:08.578Z,71.41
2022-09-12T13:08:18.318Z,71.44
2022-09-12T13:09:33.946Z,71.30
2022-09-12T13:10:38.499Z,71.31
2022-09-12T13:11:41.482Z,71.30
2022-09-12T13:12:47.023Z,71.26
2022-09-12T13:13:56.408Z,71.26
2022-09-12T13:15:01.385Z,71.27
2022-09-12T13:16:04.704Z,71.27
2022-09-12T13:17:09.682Z,71.24
2022-09-12T13:18:22.630Z,71.22
2022-09-12T13:19:28.966Z,71.16
2022-09-12T13:20:35.981Z,71.12
2022-09-12T13:21:38.974Z,71.10
2022-09-12T13:22:44.770Z,71.03
2022-09-12T13:24:02.312Z,71.05
2022-09-12T13:25:36.062Z,70.98
2022-09-12T13:26:46.410Z,70.79
2022-09-12T13:28:05.664Z,70.76
2022-09-12T13:29:14.795Z,70.71
2022-09-12T13:30:19.572Z,70.69
2022-09-12T13:31:25.398Z,70.65
2022-09-12T13:32:28.384Z,70.59
2022-09-12T13:33:40.780Z,70.55
2022-09-12T13:35:08.489Z,70.48
2022-09-12T13:36:33.028Z,70.38
2022-09-12T13:37:55.990Z,70.27
2022-09-12T13:39:21.613Z,70.26
2022-09-12T13:40:40.894Z,70.19
2022-09-12T13:42:03.887Z,70.17
2022-09-12T13:43:15.479Z,70.19
2022-09-12T13:44:21.237Z,70.09
2022-09-12T13:45:29.179Z,70.20
2022-09-12T13:46:34.077Z,70.13
2022-09-12T13:47:43.568Z,70.09
2022-09-12T13:48:46.557Z,70.09
2022-09-12T13:49:49.948Z,70.05
2022-09-12T13:50:55.561Z,70.02
2022-09-12T13:52:05.108Z,69.99
2022-09-12T13:53:14.331Z,69.97
2022-09-12T13:54:23.858Z,69.87
2022-09-12T13:55:28.624Z,69.84
2022-09-12T13:56:31.965Z,69.77
2022-09-12T13:57:40.727Z,69.60
2022-09-12T13:58:56.618Z,69.56
2022-09-12T14:00:02.458Z,69.46
2022-09-12T14:01:15.929Z,69.42
2022-09-12T14:02:20.711Z,69.36
2022-09-12T14:03:52.432Z,69.34
2022-09-12T14:05:10.871Z,69.38
2022-09-12T14:06:15.823Z,69.27
2022-09-12T14:07:24.609Z,69.29
2022-09-12T14:08:27.478Z,69.24
2022-09-12T14:09:33.989Z,69.24
2022-09-12T14:10:39.317Z,69.31
2022-09-12T14:11:42.715Z,69.17
2022-09-12T14:12:47.415Z,69.15
2022-09-12T14:13:52.025Z,69.14
2022-09-12T14:14:54.944Z,69.13
2022-09-12T14:15:59.196Z,69.09
2022-09-12T14:17:23.786Z,69.10
2022-09-12T14:18:34.939Z,69.07
2022-09-12T14:19:38.005Z,69.02
2022-09-12T14:20:42.222Z,69.00
2022-09-12T14:21:45.879Z,69.01
2022-09-12T14:22:51.336Z,69.00
2022-09-12T14:23:54.640Z,68.97
2022-09-12T14:24:59.033Z,68.91
2022-09-12T14:26:05.091Z,68.92
2022-09-12T14:27:09.920Z,68.88
2022-09-12T14:28:15.299Z,68.85
2022-09-12T14:29:19.670Z,68.84
2022-09-12T14:30:26.163Z,68.80
2022-09-12T14:31:35.397Z,68.83
2022-09-12T14:32:38.240Z,68.86
2022-09-12T14:33:55.801Z,68.87
2022-09-12T14:35:14.050Z,68.88
2022-09-12T14:36:22.258Z,68.90
2022-09-12T14:37:25.200Z,68.92
2022-09-12T14:39:54.073Z,68.99
2022-09-12T14:41:03.568Z,68.96
2022-09-12T14:42:18.244Z,69.06
2022-09-12T14:43:39.712Z,69.04
2022-09-12T14:44:46.395Z,69.14
2022-09-12T14:46:04.358Z,69.16